Time;durP1;ratioP1;P1;durP2;ratioP2;P2;SDS_P1;SDS_P2;PMS_P1;PMS_P2;Temp;Humidity;BMP_temperature;BMP_pressure;BME280_temperature;BME280_humidity;BME280_pressure;Samples;Min_cycle;Max_cycle;Signal;HPM_P1;HPM_P2
2023/06/03 00:01:59;;;;;;;3.63;1.70;;;;;;;;;;5049580;28;20035;-68
2023/06/03 00:04:29;;;;;;;5.97;1.90;;;;;;;;;;5051473;28;20033;-68
2023/06/03 00:06:55;;;;;;;2.65;1.38;;;;;;;;;;5049362;28;20033;-68
2023/06/03 00:09:21;;;;;;;4.75;1.70;;;;;;;;;;5049096;28;20480;-69
2023/06/03 00:11:47;;;;;;;3.63;1.60;;;;;;;;;;5046970;28;20037;-69
2023/06/03 00:14:13;;;;;;;7.10;1.73;;;;;;;;;;5051079;28;20037;-69
2023/06/03 00:16:39;;;;;;;4.57;1.90;;;;;;;;;;5049015;28;20033;-68
2023/06/03 00:19:05;;;;;;;6.13;2.00;;;;;;;;;;5053383;28;20033;-68
2023/06/03 00:21:34;;;;;;;3.38;1.65;;;;;;;;;;5041152;28;20033;-69
2023/06/03 00:24:00;;;;;;;2.92;1.70;;;;;;;;;;5049498;28;20099;-68
2023/06/03 00:26:26;;;;;;;4.72;1.98;;;;;;;;;;5041756;28;20056;-69
2023/06/03 00:28:52;;;;;;;7.70;2.33;;;;;;;;;;5057842;28;20029;-68
2023/06/03 00:31:18;;;;;;;3.72;1.65;;;;;;;;;;5053608;28;20041;-68
2023/06/03 00:33:44;;;;;;;3.08;1.25;;;;;;;;;;5046727;28;20490;-69
2023/06/03 00:36:10;;;;;;;4.50;1.70;;;;;;;;;;5045727;28;20033;-69
2023/06/03 00:38:36;;;;;;;7.22;1.42;;;;;;;;;;5040231;28;20105;-68
2023/06/03 00:41:02;;;;;;;4.13;1.40;;;;;;;;;;5043794;28;20489;-69
2023/06/03 00:43:28;;;;;;;3.38;1.58;;;;;;;;;;5035852;28;20022;-68
2023/06/03 00:45:54;;;;;;;1.50;1.15;;;;;;;;;;5048926;28;20021;-69
2023/06/03 00:48:20;;;;;;;3.58;1.10;;;;;;;;;;5046549;28;20044;-68
2023/06/03 00:50:46;;;;;;;3.08;1.38;;;;;;;;;;5050891;28;20032;-69
2023/06/03 00:53:12;;;;;;;4.20;1.25;;;;;;;;;;5045610;28;20052;-69
2023/06/03 00:55:40;;;;;;;2.90;1.25;;;;;;;;;;5049760;28;20037;-69
2023/06/03 00:58:07;;;;;;;1.30;0.95;;;;;;;;;;5049924;28;20064;-69
2023/06/03 01:00:33;;;;;;;2.67;1.20;;;;;;;;;;5048211;28;20078;-69
2023/06/03 01:03:01;;;;;;;2.92;1.23;;;;;;;;;;5049910;28;20025;-70
2023/06/03 01:05:27;;;;;;;2.22;1.02;;;;;;;;;;5048388;28;20032;-69
2023/06/03 01:07:56;;;;;;;1.55;1.00;;;;;;;;;;5046673;28;20033;-69
2023/06/03 01:10:36;;;;;;;10.05;1.40;;;;;;;;;;5048236;28;20020;-69
2023/06/03 01:13:16;;;;;;;4.78;1.45;;;;;;;;;;5045087;28;20029;-69
2023/06/03 01:15:44;;;;;;;1.27;1.00;;;;;;;;;;5045949;28;20362;-69
2023/06/03 01:18:11;;;;;;;2.83;1.38;;;;;;;;;;5047058;28;20060;-69
2023/06/03 01:20:38;;;;;;;5.90;1.20;;;;;;;;;;5062653;28;20434;-69
2023/06/03 01:23:24;;;;;;;4.57;1.13;;;;;;;;;;5047962;28;20024;-69
2023/06/03 01:25:56;;;;;;;6.45;1.27;;;;;;;;;;5039389;28;20024;-69
2023/06/03 01:28:23;;;;;;;3.80;1.20;;;;;;;;;;5044217;28;20116;-69
2023/06/03 01:30:50;;;;;;;1.00;0.80;;;;;;;;;;5045685;28;20033;-68
2023/06/03 01:33:17;;;;;;;1.40;0.93;;;;;;;;;;5046570;28;20382;-69
2023/06/03 01:35:44;;;;;;;2.55;1.30;;;;;;;;;;5041919;28;20047;-69
2023/06/03 01:38:10;;;;;;;3.08;1.27;;;;;;;;;;5048164;28;20028;-69
2023/06/03 01:40:37;;;;;;;3.53;1.33;;;;;;;;;;5048712;28;20021;-69
2023/06/03 01:43:03;;;;;;;4.20;1.40;;;;;;;;;;5044387;28;20351;-69
2023/06/03 01:45:29;;;;;;;2.53;0.90;;;;;;;;;;5045248;28;20341;-69
2023/06/03 01:47:55;;;;;;;2.25;0.90;;;;;;;;;;5048370;28;20033;-70
2023/06/03 01:50:22;;;;;;;6.97;1.17;;;;;;;;;;5048258;28;20320;-69
2023/06/03 01:52:48;;;;;;;3.65;1.38;;;;;;;;;;5048902;28;20088;-69
2023/06/03 01:55:14;;;;;;;5.13;1.17;;;;;;;;;;5040811;28;20751;-69
2023/06/03 01:57:40;;;;;;;8.20;1.38;;;;;;;;;;5042083;28;20055;-69
2023/06/03 02:00:07;;;;;;;2.08;1.05;;;;;;;;;;5042662;28;20064;-69
2023/06/03 02:02:33;;;;;;;1.13;0.75;;;;;;;;;;5045167;28;20020;-69
2023/06/03 02:04:59;;;;;;;1.38;0.82;;;;;;;;;;5045254;28;20037;-69
2023/06/03 02:07:25;;;;;;;1.52;0.82;;;;;;;;;;5046674;28;20364;-70
2023/06/03 02:09:52;;;;;;;2.60;0.80;;;;;;;;;;5045199;28;20033;-70
2023/06/03 02:12:19;;;;;;;2.80;1.13;;;;;;;;;;5048248;28;20373;-69
2023/06/03 02:14:46;;;;;;;3.33;0.80;;;;;;;;;;5044217;28;20131;-69
2023/06/03 02:17:12;;;;;;;4.53;1.10;;;;;;;;;;5043931;28;20024;-69
2023/06/03 02:19:38;;;;;;;1.52;1.08;;;;;;;;;;5046157;28;20032;-69
2023/06/03 02:22:05;;;;;;;4.63;1.00;;;;;;;;;;5043812;28;20356;-69
2023/06/03 02:24:34;;;;;;;2.35;0.70;;;;;;;;;;5041605;28;20032;-69
2023/06/03 02:27:01;;;;;;;1.75;0.95;;;;;;;;;;5046589;28;20025;-69
2023/06/03 02:29:27;;;;;;;3.15;1.08;;;;;;;;;;5047026;28;20037;-67
2023/06/03 02:31:53;;;;;;;2.60;0.98;;;;;;;;;;5042718;28;20472;-68
2023/06/03 02:34:20;;;;;;;3.30;1.67;;;;;;;;;;5047335;28;20025;-68
2023/06/03 02:36:46;;;;;;;2.35;1.10;;;;;;;;;;5046164;28;20120;-68
2023/06/03 02:39:12;;;;;;;2.13;1.02;;;;;;;;;;5049219;28;20132;-68
2023/06/03 02:41:39;;;;;;;3.60;1.20;;;;;;;;;;5042353;28;20025;-68
2023/06/03 02:44:05;;;;;;;2.63;1.00;;;;;;;;;;5037505;28;20021;-68
2023/06/03 02:46:31;;;;;;;1.65;0.82;;;;;;;;;;5047456;28;20051;-67
2023/06/03 02:48:57;;;;;;;4.82;1.10;;;;;;;;;;5047341;28;20434;-68
2023/06/03 02:51:24;;;;;;;4.00;1.08;;;;;;;;;;5041304;28;20084;-68
2023/06/03 02:53:50;;;;;;;4.13;1.42;;;;;;;;;;5047408;28;20055;-68
2023/06/03 02:56:16;;;;;;;3.92;1.92;;;;;;;;;;5042668;28;20029;-68
2023/06/03 02:58:43;;;;;;;6.32;1.20;;;;;;;;;;5046954;28;20113;-68
2023/06/03 03:01:09;;;;;;;9.73;1.33;;;;;;;;;;5048147;28;20039;-69
2023/06/03 03:03:35;;;;;;;1.25;0.88;;;;;;;;;;5044728;28;20017;-69
2023/06/03 03:06:02;;;;;;;3.35;1.42;;;;;;;;;;5046760;28;20021;-69
2023/06/03 03:08:28;;;;;;;1.98;1.23;;;;;;;;;;5047736;28;20102;-69
2023/06/03 03:10:54;;;;;;;6.65;1.05;;;;;;;;;;5051075;28;20479;-68
2023/06/03 03:13:20;;;;;;;2.47;1.08;;;;;;;;;;5047368;28;20056;-68
2023/06/03 03:15:47;;;;;;;2.17;1.00;;;;;;;;;;5047559;28;20031;-68
2023/06/03 03:18:13;;;;;;;2.38;1.48;;;;;;;;;;5049813;28;20028;-68
2023/06/03 03:20:39;;;;;;;3.33;1.00;;;;;;;;;;5045883;28;20034;-68
2023/06/03 03:23:06;;;;;;;2.72;1.38;;;;;;;;;;5045807;28;20093;-68
2023/06/03 03:25:33;;;;;;;3.53;1.30;;;;;;;;;;5042459;28;20040;-69
2023/06/03 03:27:59;;;;;;;2.25;1.33;;;;;;;;;;5044499;28;20029;-68
2023/06/03 03:30:25;;;;;;;2.92;1.27;;;;;;;;;;5050126;28;20418;-69
2023/06/03 03:32:51;;;;;;;4.38;1.23;;;;;;;;;;5047425;28;20470;-69
2023/06/03 03:35:19;;;;;;;4.65;1.40;;;;;;;;;;5045990;28;20029;-69
2023/06/03 03:37:45;;;;;;;3.03;1.20;;;;;;;;;;5050094;28;20489;-69
2023/06/03 03:40:17;;;;;;;3.00;1.33;;;;;;;;;;5048253;28;20029;-69
2023/06/03 03:42:46;;;;;;;6.65;1.40;;;;;;;;;;5051732;28;20028;-68
2023/06/03 03:45:18;;;;;;;2.15;1.42;;;;;;;;;;5049274;28;22717;-69
2023/06/03 03:47:45;;;;;;;2.20;0.98;;;;;;;;;;5048086;28;20033;-68
2023/06/03 03:50:20;;;;;;;4.18;2.13;;;;;;;;;;5048700;28;20391;-68
2023/06/03 03:52:46;;;;;;;4.53;1.10;;;;;;;;;;5049435;28;20041;-71
2023/06/03 03:55:12;;;;;;;3.80;1.80;;;;;;;;;;5048736;28;20384;-69
2023/06/03 03:57:39;;;;;;;6.32;1.33;;;;;;;;;;5049609;28;20025;-69
2023/06/03 04:00:09;;;;;;;2.83;1.02;;;;;;;;;;5041939;28;20028;-67
2023/06/03 04:02:36;;;;;;;2.20;1.20;;;;;;;;;;5046551;28;20462;-68
2023/06/03 04:05:03;;;;;;;3.55;1.38;;;;;;;;;;5046886;28;20065;-68
2023/06/03 04:07:38;;;;;;;3.33;0.88;;;;;;;;;;5050025;28;20017;-68
2023/06/03 04:10:08;;;;;;;2.60;1.27;;;;;;;;;;5047290;28;20013;-68
2023/06/03 04:12:36;;;;;;;3.88;1.50;;;;;;;;;;5047908;28;20521;-68
2023/06/03 04:15:02;;;;;;;2.92;1.02;;;;;;;;;;5041909;28;20044;-68
2023/06/03 04:17:30;;;;;;;5.22;1.48;;;;;;;;;;5049385;28;20033;-68
2023/06/03 04:19:56;;;;;;;3.55;1.35;;;;;;;;;;5039841;28;20023;-69
2023/06/03 04:22:25;;;;;;;2.03;1.17;;;;;;;;;;5050904;28;20033;-68
2023/06/03 04:24:56;;;;;;;8.15;1.30;;;;;;;;;;5048071;28;20029;-68
2023/06/03 04:27:22;;;;;;;5.28;1.23;;;;;;;;;;5049160;28;20364;-68
2023/06/03 04:29:48;;;;;;;3.72;1.23;;;;;;;;;;5047297;28;20019;-67
2023/06/03 04:32:14;;;;;;;2.10;1.42;;;;;;;;;;5047529;28;20409;-68
2023/06/03 04:34:56;;;;;;;6.47;1.63;;;;;;;;;;5049498;28;20036;-68
2023/06/03 04:37:22;;;;;;;4.13;1.58;;;;;;;;;;5049077;28;20052;-68
2023/06/03 04:39:48;;;;;;;3.35;1.50;;;;;;;;;;5051083;28;20025;-67
2023/06/03 04:42:15;;;;;;;5.32;1.20;;;;;;;;;;5046592;28;20099;-68
2023/06/03 04:44:42;;;;;;;7.47;1.00;;;;;;;;;;5049906;28;20473;-68
2023/06/03 04:47:12;;;;;;;3.63;1.40;;;;;;;;;;5050562;28;20028;-67
2023/06/03 04:49:41;;;;;;;3.00;1.05;;;;;;;;;;5046486;28;20025;-67
2023/06/03 04:52:09;;;;;;;4.43;1.08;;;;;;;;;;5049528;28;20359;-68
2023/06/03 04:54:36;;;;;;;2.35;1.10;;;;;;;;;;5039766;28;20067;-67
2023/06/03 04:57:02;;;;;;;5.68;1.35;;;;;;;;;;5022717;28;20054;-69
2023/06/03 04:59:28;;;;;;;5.63;1.63;;;;;;;;;;5037436;28;20543;-68
2023/06/03 05:01:54;;;;;;;2.97;1.38;;;;;;;;;;5047580;28;20115;-69
2023/06/03 05:04:22;;;;;;;3.08;1.25;;;;;;;;;;5045249;28;20123;-69
2023/06/03 05:06:48;;;;;;;6.13;1.23;;;;;;;;;;5029883;28;20029;-70
2023/06/03 05:09:15;;;;;;;11.85;4.35;;;;;;;;;;5035827;28;20593;-71
2023/06/03 05:11:42;;;;;;;3.35;2.42;;;;;;;;;;5046964;28;20033;-70
2023/06/03 05:14:08;;;;;;;6.18;1.80;;;;;;;;;;5051196;28;20020;-69
2023/06/03 05:16:36;;;;;;;2.33;1.02;;;;;;;;;;5046451;28;20078;-70
2023/06/03 05:19:02;;;;;;;2.42;1.30;;;;;;;;;;5046069;28;20025;-70
2023/06/03 05:21:28;;;;;;;2.05;1.08;;;;;;;;;;5062217;28;20051;-69
2023/06/03 05:23:54;;;;;;;2.25;0.93;;;;;;;;;;5045513;28;20116;-69
2023/06/03 05:26:20;;;;;;;2.67;1.13;;;;;;;;;;5036394;28;20025;-71
2023/06/03 05:28:48;;;;;;;2.33;0.90;;;;;;;;;;5042278;28;20113;-71
2023/06/03 05:31:14;;;;;;;3.67;1.38;;;;;;;;;;5050942;28;20055;-71
2023/06/03 05:33:41;;;;;;;2.08;1.00;;;;;;;;;;5047862;28;20033;-70
2023/06/03 05:36:07;;;;;;;7.13;1.25;;;;;;;;;;5036381;28;20481;-70
2023/06/03 05:38:33;;;;;;;1.40;0.77;;;;;;;;;;5056223;28;20083;-70
2023/06/03 05:41:00;;;;;;;2.83;1.20;;;;;;;;;;5043558;28;20036;-71
2023/06/03 05:43:26;;;;;;;2.90;1.17;;;;;;;;;;5043595;28;20417;-70
2023/06/03 05:45:52;;;;;;;3.05;0.90;;;;;;;;;;5041331;28;20024;-70
2023/06/03 05:48:18;;;;;;;3.20;0.85;;;;;;;;;;5050519;28;20025;-70
2023/06/03 05:50:51;;;;;;;4.30;1.20;;;;;;;;;;5041202;28;20020;-70
2023/06/03 05:53:21;;;;;;;6.32;1.10;;;;;;;;;;5048852;28;20091;-72
2023/06/03 05:55:49;;;;;;;2.05;1.00;;;;;;;;;;5050043;28;20035;-70
2023/06/03 05:58:17;;;;;;;23.60;12.85;;;;;;;;;;5046847;28;20381;-71
2023/06/03 06:00:43;;;;;;;10.48;3.45;;;;;;;;;;5041274;28;20460;-72
2023/06/03 06:03:09;;;;;;;10.00;3.95;;;;;;;;;;5045775;28;20439;-71
2023/06/03 06:05:35;;;;;;;3.50;1.75;;;;;;;;;;5046362;28;20168;-72
2023/06/03 06:08:01;;;;;;;4.53;1.30;;;;;;;;;;5047429;28;20040;-71
2023/06/03 06:10:27;;;;;;;2.05;0.90;;;;;;;;;;5043454;28;20035;-73
2023/06/03 06:12:53;;;;;;;4.50;1.52;;;;;;;;;;5046188;28;20046;-73
2023/06/03 06:15:19;;;;;;;4.50;1.40;;;;;;;;;;5044714;28;20029;-72
2023/06/03 06:17:45;;;;;;;3.88;1.20;;;;;;;;;;5051298;28;20057;-71
2023/06/03 06:20:11;;;;;;;3.78;1.00;;;;;;;;;;5044801;28;20025;-71
2023/06/03 06:22:37;;;;;;;5.10;1.52;;;;;;;;;;5043119;28;20600;-71
2023/06/03 06:25:04;;;;;;;3.22;1.60;;;;;;;;;;5046712;28;20155;-72
2023/06/03 06:27:30;;;;;;;2.70;0.90;;;;;;;;;;5040063;28;20478;-72
2023/06/03 06:29:56;;;;;;;3.35;1.42;;;;;;;;;;5042744;28;20076;-72
2023/06/03 06:32:24;;;;;;;2.30;1.05;;;;;;;;;;5041974;28;20037;-72
2023/06/03 06:34:50;;;;;;;3.63;1.02;;;;;;;;;;5042870;28;20032;-72
2023/06/03 06:37:18;;;;;;;5.28;1.13;;;;;;;;;;5046050;28;20159;-72
2023/06/03 06:39:53;;;;;;;8.00;4.35;;;;;;;;;;5049152;28;20045;-72
2023/06/03 06:42:22;;;;;;;4.63;2.22;;;;;;;;;;5048639;28;20033;-72
2023/06/03 06:44:49;;;;;;;5.22;1.85;;;;;;;;;;5052564;28;20025;-71
2023/06/03 06:47:17;;;;;;;9.35;1.80;;;;;;;;;;5052328;28;20037;-76
2023/06/03 06:49:43;;;;;;;4.13;1.13;;;;;;;;;;5048941;28;20025;-76
2023/06/03 06:52:09;;;;;;;10.57;1.42;;;;;;;;;;5054094;28;20102;-72
2023/06/03 06:54:36;;;;;;;4.97;1.30;;;;;;;;;;5051314;28;20033;-72
2023/06/03 06:57:02;;;;;;;3.03;1.60;;;;;;;;;;5052013;28;20171;-72
2023/06/03 06:59:28;;;;;;;1.58;0.80;;;;;;;;;;5052067;28;20489;-72
2023/06/03 07:01:54;;;;;;;7.03;1.27;;;;;;;;;;5042674;28;20040;-75
2023/06/03 07:04:20;;;;;;;5.13;0.90;;;;;;;;;;5062770;28;20040;-74
2023/06/03 07:06:46;;;;;;;2.78;0.88;;;;;;;;;;5046147;28;20033;-74
2023/06/03 07:09:12;;;;;;;11.57;6.93;;;;;;;;;;5042408;28;20025;-74
2023/06/03 07:11:44;;;;;;;6.43;2.80;;;;;;;;;;5053417;28;20039;-72
2023/06/03 07:14:10;;;;;;;;;;;;;;;;;;5053028;28;20037;-73
2023/06/03 07:16:36;;;;;;;3.10;1.10;;;;;;;;;;5052200;28;19932;-72
2023/06/03 07:19:03;;;;;;;2.08;0.90;;;;;;;;;;5048560;28;20371;-73
2023/06/03 07:21:29;;;;;;;2.05;0.70;;;;;;;;;;5049211;28;20033;-74
2023/06/03 07:23:55;;;;;;;6.13;1.33;;;;;;;;;;5047907;28;20570;-73
2023/06/03 07:26:23;;;;;;;5.72;1.40;;;;;;;;;;5051384;28;20037;-73
2023/06/03 07:28:49;;;;;;;4.30;0.80;;;;;;;;;;5047257;28;20021;-73
2023/06/03 07:31:15;;;;;;;4.10;1.05;;;;;;;;;;5056509;28;20043;-72
2023/06/03 07:33:55;;;;;;;3.40;0.80;;;;;;;;;;5050353;28;20065;-73
2023/06/03 07:36:22;;;;;;;7.05;1.60;;;;;;;;;;5051887;28;20048;-71
2023/06/03 07:39:00;;;;;;;9.80;1.90;;;;;;;;;;5046030;28;20120;-72
2023/06/03 07:41:29;;;;;;;2.17;0.90;;;;;;;;;;5049335;28;20509;-73
2023/06/03 07:43:58;;;;;;;2.30;0.82;;;;;;;;;;5047628;28;20462;-72
2023/06/03 07:46:26;;;;;;;3.08;1.15;;;;;;;;;;5052838;28;20087;-72
2023/06/03 07:48:52;;;;;;;13.27;9.02;;;;;;;;;;5043232;28;20486;-71
2023/06/03 07:51:18;;;;;;;17.23;11.00;;;;;;;;;;5052957;28;20202;-73
2023/06/03 07:53:44;;;;;;;9.68;6.35;;;;;;;;;;5051932;28;20035;-71
2023/06/03 07:56:11;;;;;;;3.28;1.83;;;;;;;;;;5050855;28;20535;-75
2023/06/03 07:58:37;;;;;;;2.00;1.00;;;;;;;;;;5051160;28;20033;-74
2023/06/03 08:01:03;;;;;;;4.22;1.13;;;;;;;;;;5052447;28;20032;-74
2023/06/03 08:03:30;;;;;;;4.75;1.08;;;;;;;;;;5049743;28;20071;-75
2023/06/03 08:05:56;;;;;;;3.25;0.88;;;;;;;;;;5049810;28;20035;-74
2023/06/03 08:08:26;;;;;;;4.90;0.70;;;;;;;;;;5047981;28;20033;-73
2023/06/03 08:10:52;;;;;;;2.42;0.70;;;;;;;;;;5051381;28;20551;-74
2023/06/03 08:13:18;;;;;;;4.72;0.80;;;;;;;;;;5049104;28;20041;-73
2023/06/03 08:15:44;;;;;;;9.50;6.10;;;;;;;;;;5050546;28;20036;-75
2023/06/03 08:18:24;;;;;;;5.30;1.63;;;;;;;;;;5053270;28;20194;-75
2023/06/03 08:20:50;;;;;;;0.82;0.70;;;;;;;;;;5045639;28;20029;-73
2023/06/03 08:23:16;;;;;;;2.17;0.82;;;;;;;;;;5046762;28;20040;-74
2023/06/03 08:25:43;;;;;;;2.28;0.70;;;;;;;;;;5051131;28;20065;-75
2023/06/03 08:28:09;;;;;;;1.95;0.82;;;;;;;;;;5048704;28;20479;-75
2023/06/03 08:30:35;;;;;;;3.40;0.90;;;;;;;;;;5048892;28;20029;-74
2023/06/03 08:33:01;;;;;;;1.45;0.90;;;;;;;;;;5049369;28;20045;-74
2023/06/03 08:35:27;;;;;;;10.07;1.20;;;;;;;;;;5044694;28;20045;-74
2023/06/03 08:37:53;;;;;;;4.13;0.82;;;;;;;;;;5047496;28;20025;-74
2023/06/03 08:40:21;;;;;;;5.07;0.90;;;;;;;;;;5047336;28;20033;-74
2023/06/03 08:42:48;;;;;;;2.28;0.80;;;;;;;;;;5050677;28;20044;-73
2023/06/03 08:45:18;;;;;;;1.17;0.57;;;;;;;;;;5050234;28;20386;-74
2023/06/03 08:47:44;;;;;;;1.60;0.88;;;;;;;;;;5046838;28;20029;-73
2023/06/03 08:50:11;;;;;;;1.77;0.70;;;;;;;;;;5049004;28;20501;-74
2023/06/03 08:52:40;;;;;;;2.30;0.90;;;;;;;;;;5045364;28;20056;-74
2023/06/03 08:55:07;;;;;;;0.80;0.50;;;;;;;;;;5054183;28;20547;-74
2023/06/03 08:57:40;;;;;;;0.98;0.80;;;;;;;;;;5048253;28;20158;-75
2023/06/03 09:00:07;;;;;;;7.55;1.08;;;;;;;;;;5048498;28;20024;-73
2023/06/03 09:02:34;;;;;;;3.33;0.80;;;;;;;;;;5050161;28;20041;-74
2023/06/03 09:05:03;;;;;;;2.08;1.05;;;;;;;;;;5049827;28;20029;-75
2023/06/03 09:07:30;;;;;;;2.42;0.80;;;;;;;;;;5045955;28;20061;-74
2023/06/03 09:09:57;;;;;;;2.05;0.88;;;;;;;;;;5046386;28;20045;-74
2023/06/03 09:12:23;;;;;;;4.10;1.13;;;;;;;;;;5048804;28;20433;-75
2023/06/03 09:14:50;;;;;;;8.93;5.50;;;;;;;;;;5050166;28;20112;-75
2023/06/03 09:17:16;;;;;;;4.35;0.85;;;;;;;;;;5048052;28;20098;-73
2023/06/03 09:19:43;;;;;;;1.08;0.60;;;;;;;;;;5050122;28;20052;-73
2023/06/03 09:22:10;;;;;;;2.05;0.60;;;;;;;;;;5047583;28;20037;-73
2023/06/03 09:24:35;;;;;;;3.55;0.73;;;;;;;;;;5047184;28;20108;-73
2023/06/03 09:27:02;;;;;;;1.67;0.70;;;;;;;;;;5048146;28;20124;-73
2023/06/03 09:29:28;;;;;;;3.35;0.70;;;;;;;;;;5047174;28;20071;-73
2023/06/03 09:31:54;;;;;;;1.85;0.70;;;;;;;;;;5046530;28;20453;-72
2023/06/03 09:34:22;;;;;;;1.58;0.50;;;;;;;;;;5045851;28;20040;-73
2023/06/03 09:36:49;;;;;;;3.13;0.80;;;;;;;;;;5047505;28;20056;-73
2023/06/03 09:39:17;;;;;;;3.13;0.60;;;;;;;;;;5051135;28;20039;-72
2023/06/03 09:41:44;;;;;;;6.10;2.40;;;;;;;;;;5050153;28;20025;-76
2023/06/03 09:44:10;;;;;;;3.33;1.98;;;;;;;;;;5048026;28;20043;-75
2023/06/03 09:46:37;;;;;;;3.67;0.85;;;;;;;;;;5050811;28;20029;-76
2023/06/03 09:49:13;;;;;;;4.57;1.00;;;;;;;;;;5047863;28;20037;-73
2023/06/03 09:51:41;;;;;;;3.15;0.95;;;;;;;;;;5045730;28;20056;-73
2023/06/03 09:54:12;;;;;;;1.35;0.60;;;;;;;;;;5048138;28;20449;-72
2023/06/03 09:56:38;;;;;;;0.85;0.60;;;;;;;;;;5051047;28;20143;-71
2023/06/03 09:59:17;;;;;;;4.10;1.25;;;;;;;;;;5046813;28;20111;-74
2023/06/03 10:01:47;;;;;;;1.33;0.50;;;;;;;;;;5048059;28;20378;-74
2023/06/03 10:04:17;;;;;;;2.75;0.70;;;;;;;;;;5047754;28;20126;-74
2023/06/03 10:06:43;;;;;;;2.67;1.15;;;;;;;;;;5039550;28;20026;-74
2023/06/03 10:09:19;;;;;;;1.75;0.52;;;;;;;;;;5037905;28;20536;-74
2023/06/03 10:11:47;;;;;;;1.65;0.50;;;;;;;;;;5048733;28;20040;-74
2023/06/03 10:14:15;;;;;;;3.28;0.70;;;;;;;;;;5050998;28;20025;-74
2023/06/03 10:16:41;;;;;;;3.78;0.47;;;;;;;;;;5050740;28;20113;-73
2023/06/03 10:19:07;;;;;;;7.35;0.93;;;;;;;;;;5049688;28;20027;-74
2023/06/03 10:21:35;;;;;;;1.88;0.60;;;;;;;;;;5050130;28;20108;-73
2023/06/03 10:24:02;;;;;;;3.80;0.50;;;;;;;;;;5049997;28;20031;-73
2023/06/03 10:26:30;;;;;;;4.40;0.65;;;;;;;;;;5043403;28;20026;-73
2023/06/03 10:28:57;;;;;;;6.10;0.98;;;;;;;;;;5030596;28;20068;-73
2023/06/03 10:31:24;;;;;;;8.18;3.55;;;;;;;;;;5045030;28;20114;-77
2023/06/03 10:33:50;;;;;;;3.00;2.35;;;;;;;;;;5048004;28;20032;-72
2023/06/03 10:36:17;;;;;;;1.02;0.70;;;;;;;;;;5044144;28;20800;-75
2023/06/03 10:38:44;;;;;;;1.27;0.60;;;;;;;;;;5045975;28;20032;-74
2023/06/03 10:41:12;;;;;;;1.65;0.63;;;;;;;;;;5048197;28;20108;-73
2023/06/03 10:43:38;;;;;;;3.15;0.70;;;;;;;;;;5045922;28;20032;-73
2023/06/03 10:46:04;;;;;;;0.52;0.50;;;;;;;;;;5040385;28;20026;-73
2023/06/03 10:48:31;;;;;;;1.40;0.85;;;;;;;;;;5038885;28;20032;-73
2023/06/03 10:51:00;;;;;;;2.28;0.80;;;;;;;;;;5047776;28;20048;-73
2023/06/03 10:53:29;;;;;;;1.42;0.60;;;;;;;;;;5044581;28;20053;-73
2023/06/03 10:56:03;;;;;;;0.77;0.63;;;;;;;;;;5047747;28;20036;-73
2023/06/03 10:58:29;;;;;;;1.17;0.70;;;;;;;;;;5042894;28;20037;-73
2023/06/03 11:00:56;;;;;;;11.45;5.70;;;;;;;;;;5048987;28;20646;-75
2023/06/03 11:03:26;;;;;;;4.78;1.50;;;;;;;;;;5048879;28;20044;-76
2023/06/03 11:05:53;;;;;;;3.58;0.68;;;;;;;;;;5047222;28;20078;-75
2023/06/03 11:08:38;;;;;;;1.40;0.50;;;;;;;;;;5042159;28;20036;-75
2023/06/03 11:11:04;;;;;;;2.20;0.70;;;;;;;;;;5045539;28;20029;-75
2023/06/03 11:13:44;;;;;;;2.38;1.25;;;;;;;;;;5039754;28;20430;-75
2023/06/03 11:16:10;;;;;;;1.08;0.70;;;;;;;;;;5043572;28;20120;-74
2023/06/03 11:18:36;;;;;;;2.90;0.70;;;;;;;;;;5043308;28;21458;-74
2023/06/03 11:21:02;;;;;;;5.25;0.98;;;;;;;;;;5046588;28;20108;-73
2023/06/03 11:23:47;;;;;;;0.80;0.70;;;;;;;;;;5045485;28;20025;-72
2023/06/03 11:26:35;;;;;;;2.88;0.82;;;;;;;;;;5048911;28;20343;-73
2023/06/03 11:29:04;;;;;;;4.03;0.88;;;;;;;;;;5048005;28;20122;-73
2023/06/03 11:31:31;;;;;;;3.67;0.82;;;;;;;;;;5052917;28;20436;-72
2023/06/03 11:34:16;;;;;;;5.43;0.70;;;;;;;;;;5051830;28;20033;-72
2023/06/03 11:36:46;;;;;;;1.27;0.70;;;;;;;;;;5050737;28;20432;-72
2023/06/03 11:39:12;;;;;;;1.52;0.70;;;;;;;;;;5037747;28;20036;-73
2023/06/03 11:41:59;;;;;;;5.53;0.80;;;;;;;;;;5047710;28;20487;-73
2023/06/03 11:44:25;;;;;;;1.10;0.70;;;;;;;;;;5053265;28;20571;-73
2023/06/03 11:46:54;;;;;;;3.25;0.85;;;;;;;;;;5051751;28;20041;-73
2023/06/03 11:49:24;;;;;;;7.65;0.88;;;;;;;;;;5051613;28;20033;-73
2023/06/03 11:51:54;;;;;;;6.78;1.33;;;;;;;;;;5062651;28;20493;-73
2023/06/03 11:54:21;;;;;;;5.80;0.65;;;;;;;;;;5073839;28;20047;-73
2023/06/03 11:56:47;;;;;;;2.90;1.05;;;;;;;;;;5055520;28;20059;-73
2023/06/03 11:59:16;;;;;;;1.40;0.60;;;;;;;;;;5050430;28;20059;-73
2023/06/03 12:01:58;;;;;;;0.98;0.65;;;;;;;;;;5051106;28;20382;-73
2023/06/03 12:04:24;;;;;;;4.88;0.55;;;;;;;;;;5053373;28;20559;-73
2023/06/03 12:06:52;;;;;;;3.63;0.68;;;;;;;;;;5055681;28;20471;-73
2023/06/03 12:09:21;;;;;;;4.05;0.73;;;;;;;;;;5050376;28;20037;-73
2023/06/03 12:11:47;;;;;;;1.45;0.60;;;;;;;;;;5053037;28;20095;-73
2023/06/03 12:14:33;;;;;;;1.48;0.60;;;;;;;;;;5052039;28;20037;-73
2023/06/03 12:17:13;;;;;;;2.33;0.65;;;;;;;;;;5051964;28;20040;-73
2023/06/03 12:19:43;;;;;;;3.22;0.70;;;;;;;;;;5053221;28;20048;-73
2023/06/03 12:22:09;;;;;;;3.72;0.90;;;;;;;;;;5052363;28;20050;-73
2023/06/03 12:24:35;;;;;;;3.03;0.90;;;;;;;;;;5052917;28;20033;-72
2023/06/03 12:27:11;;;;;;;11.40;1.20;;;;;;;;;;5053109;28;20119;-73
2023/06/03 12:29:47;;;;;;;6.35;1.10;;;;;;;;;;5050726;28;20040;-73
2023/06/03 12:32:14;;;;;;;5.45;0.65;;;;;;;;;;5049596;28;20053;-72
2023/06/03 12:34:40;;;;;;;0.98;0.65;;;;;;;;;;5049447;28;20037;-72
2023/06/03 12:37:06;;;;;;;1.75;0.50;;;;;;;;;;5052353;28;20047;-72
2023/06/03 12:39:39;;;;;;;3.30;0.77;;;;;;;;;;5044643;28;20041;-72
2023/06/03 12:42:06;;;;;;;3.55;0.80;;;;;;;;;;5048727;28;20036;-73
2023/06/03 12:44:41;;;;;;;1.63;0.63;;;;;;;;;;5051745;28;20023;-72
2023/06/03 12:47:07;;;;;;;3.15;0.80;;;;;;;;;;5048926;28;20557;-72
2023/06/03 12:49:34;;;;;;;4.20;0.80;;;;;;;;;;5051708;28;20248;-73
2023/06/03 12:52:10;;;;;;;1.98;1.00;;;;;;;;;;5050621;28;20068;-72
2023/06/03 12:54:37;;;;;;;0.63;0.52;;;;;;;;;;5048389;28;20450;-73
2023/06/03 12:57:03;;;;;;;3.92;0.70;;;;;;;;;;5051376;28;20044;-72
2023/06/03 12:59:30;;;;;;;1.90;0.70;;;;;;;;;;5051024;28;20067;-73
2023/06/03 13:01:56;;;;;;;1.42;0.75;;;;;;;;;;5051215;28;20120;-73
2023/06/03 13:04:23;;;;;;;1.58;0.70;;;;;;;;;;5052152;28;20373;-73
2023/06/03 13:06:49;;;;;;;0.80;0.57;;;;;;;;;;5051973;28;20490;-73
2023/06/03 13:09:15;;;;;;;1.05;0.57;;;;;;;;;;5050074;28;20235;-72
2023/06/03 13:11:41;;;;;;;1.63;0.70;;;;;;;;;;5049946;28;20037;-72
2023/06/03 13:14:07;;;;;;;5.07;1.50;;;;;;;;;;5051909;28;20112;-73
2023/06/03 13:16:33;;;;;;;1.33;0.70;;;;;;;;;;5051777;28;20514;-72
2023/06/03 13:18:59;;;;;;;3.10;0.70;;;;;;;;;;5049831;28;20127;-72
2023/06/03 13:21:25;;;;;;;2.47;0.60;;;;;;;;;;5049627;28;20116;-72
2023/06/03 13:23:51;;;;;;;4.47;1.05;;;;;;;;;;5050495;28;20111;-72
2023/06/03 13:26:17;;;;;;;3.55;0.90;;;;;;;;;;5049798;28;20029;-72
2023/06/03 13:28:43;;;;;;;2.10;0.90;;;;;;;;;;5051855;28;20382;-72
2023/06/03 13:31:09;;;;;;;1.92;0.95;;;;;;;;;;5049273;28;20025;-73
2023/06/03 13:33:36;;;;;;;1.85;0.55;;;;;;;;;;5050344;28;20087;-72
2023/06/03 13:36:02;;;;;;;5.13;0.80;;;;;;;;;;5050025;28;20029;-72
2023/06/03 13:38:28;;;;;;;5.15;1.00;;;;;;;;;;5046255;28;20067;-73
2023/06/03 13:40:54;;;;;;;2.97;0.80;;;;;;;;;;5038655;28;20029;-72
2023/06/03 13:43:20;;;;;;;4.97;1.20;;;;;;;;;;5051015;28;20072;-72
2023/06/03 13:45:46;;;;;;;2.15;0.65;;;;;;;;;;5049470;28;20481;-73
2023/06/03 13:48:12;;;;;;;2.95;0.80;;;;;;;;;;5051386;28;20147;-72
2023/06/03 13:50:38;;;;;;;2.65;0.68;;;;;;;;;;5049470;28;20025;-73
2023/06/03 13:53:04;;;;;;;3.38;0.73;;;;;;;;;;5050080;28;20139;-72
2023/06/03 13:55:31;;;;;;;2.58;1.10;;;;;;;;;;5049988;28;20047;-72
2023/06/03 13:57:57;;;;;;;1.85;0.77;;;;;;;;;;5051015;28;20025;-72
2023/06/03 14:00:23;;;;;;;1.20;0.73;;;;;;;;;;5049937;28;20390;-72
2023/06/03 14:02:50;;;;;;;2.97;1.10;;;;;;;;;;5047969;28;20395;-72
2023/06/03 14:05:16;;;;;;;2.70;0.60;;;;;;;;;;5050209;28;20044;-73
2023/06/03 14:07:42;;;;;;;1.05;0.60;;;;;;;;;;5050929;28;20496;-72
2023/06/03 14:10:09;;;;;;;1.25;0.50;;;;;;;;;;5050001;28;20371;-73
2023/06/03 14:12:35;;;;;;;5.28;1.08;;;;;;;;;;5050551;28;20040;-73
2023/06/03 14:15:01;;;;;;;0.80;0.63;;;;;;;;;;5049346;28;20037;-72
2023/06/03 14:17:27;;;;;;;5.05;0.90;;;;;;;;;;5052651;28;20090;-72
2023/06/03 14:19:53;;;;;;;4.00;0.80;;;;;;;;;;5048917;28;20033;-73
2023/06/03 14:22:20;;;;;;;4.53;1.13;;;;;;;;;;5050107;28;20482;-73
2023/06/03 14:24:46;;;;;;;6.78;0.70;;;;;;;;;;5053393;28;20041;-72
2023/06/03 14:27:12;;;;;;;2.85;0.80;;;;;;;;;;5073281;28;20099;-73
2023/06/03 14:29:38;;;;;;;1.10;0.90;;;;;;;;;;5045564;28;20387;-72
2023/06/03 14:32:04;;;;;;;3.33;1.02;;;;;;;;;;5046308;28;20048;-73
2023/06/03 14:34:30;;;;;;;2.92;1.13;;;;;;;;;;5045705;28;20044;-72
2023/06/03 14:36:56;;;;;;;1.67;0.80;;;;;;;;;;5049450;28;20044;-72
2023/06/03 14:39:22;;;;;;;1.48;0.80;;;;;;;;;;5046573;28;20033;-72
2023/06/03 14:41:49;;;;;;;2.58;0.90;;;;;;;;;;5037354;28;20025;-72
2023/06/03 14:44:16;;;;;;;4.97;0.70;;;;;;;;;;5050342;28;20017;-74
2023/06/03 14:46:42;;;;;;;4.32;0.70;;;;;;;;;;5047930;28;20413;-72